• Join FlightAware (Why Join?)
  • Login
  • US Flag 
03:11PM EDT


 

Airport Tracker/Info


-or-


 

Live Flight TrackerFlight Track Log ✈ DAL2352 ✈ 29-Jun-2013 ✈ KALB - KATL

Flight Track Log - Related Links

Times and Time Zones

All times are in EDT time to prevent confusion due to time zone crossing. See the DAL2352 flight status page for this flight to view local times or setup timezone preferences in your user account.

Time Position Orientation Groundspeed Altitude Reporting Facility
EDT Latitude Longitude Course Direction KTS MPH feet Rate Location/Type
06:21AM 42.7256 -73.8108 180° South 156 180 1,300  Level Boston Center
06:22AM 42.6875 -73.8694 229° Southwest 259 298 3,000 1,860 Climbing Boston Center
06:23AM 42.5312 -74.1068 200° South  Level Estimated
06:24AM 42.4583 -74.2079 198° South  Level Estimated
06:24AM 42.7636 -73.9333 328° Northwest 287 330 6,500  Level Boston Center
06:25AM 42.3701 -74.1327 148° Southeast  Level FlightAware Approximate
06:25AM 42.8253 -73.9969 323° Northwest 287 330 8,900  Level Boston Center
06:26AM 42.2979 -74.2344 180° South  Level Estimated
06:26AM 42.8697 -74.1003 300° West 276 318 11,000  Level Boston Center
06:27AM 42.8661 -74.2022 267° West 295 339 12,000 1,500 Climbing Boston Center
06:28AM 42.7617 -74.2217 188° South 283 326 14,000 2,280 Climbing Boston Center
06:29AM 42.6536 -74.1875 167° South 367 422 16,600 2,100 Climbing Boston Center
06:30AM 42.5458 -74.1478 165° South 404 465 18,300 1,800 Climbing Boston Center
06:32AM 42.3475 -74.0272 156° South 409 471 22,000 1,680 Climbing Boston Center
06:33AM 42.2511 -73.9239 142° Southeast 424 488 23,400 1,500 Climbing Boston Center
06:34AM 42.1544 -73.8181 141° Southeast 443 510 25,100 1,260 Climbing Boston Center
06:35AM 42.0578 -73.7122 141° Southeast 450 518 26,000 1,080 Climbing Boston Center
06:36AM 41.9608 -73.6072 141° Southeast 455 524 27,300 1,680 Climbing Boston Center
06:37AM 41.8744 -73.4994 137° Southeast 443 510 29,400 1,800 Climbing Boston Center
06:38AM 41.7836 -73.3839 136° Southeast 418 481 30,900 1,020 Climbing Boston Center
06:39AM 41.7033 -73.2769 135° Southeast 407 468 31,500 480 Climbing Boston Center
06:40AM 41.6078 -73.2258 158° South 371 427 31,900 180 Climbing Boston Center
06:41AM 41.5044 -73.3419 220° Southwest 275 316 32,000  Climbing New York Center
06:42AM 41.5075 -73.4806 272° West 289 333 31,900  Descending New York Center
06:43AM 41.4711 -73.6092 249° West 336 387 32,000  Climbing New York Center
06:44AM 41.4061 -73.7142 230° Southwest 364 419 31,900  Descending New York Center
06:45AM 41.3408 -73.8192 230° Southwest 369 425 32,000  Climbing New York Center
06:46AM 41.2758 -73.9236 230° Southwest 374 430 32,000  Level New York Center
06:47AM 41.2083 -74.0308 230° Southwest 374 430 32,000  Level New York Center
06:48AM 41.1406 -74.1378 230° Southwest 379 436 32,000  Level New York Center
06:49AM 41.0778 -74.2283 227° Southwest 384 442 32,000  Level New York Center
06:50AM 41.0122 -74.3322 230° Southwest 378 435 32,000  Level New York Center
06:51AM 40.9464 -74.4358 230° Southwest 378 435 32,000  Level New York Center
06:52AM 40.8786 -74.5419 230° Southwest 378 435 32,000  Level New York Center
06:53AM 40.8081 -74.6558 231° Southwest 373 429 32,000  Level New York Center
06:54AM 40.7422 -74.7589 230° Southwest 378 435 32,000  Level New York Center
06:55AM 40.6761 -74.8644 230° Southwest 378 435 32,000  Level New York Center
06:56AM 40.6100 -74.9672 230° Southwest 378 435 32,000  Level New York Center
06:57AM 40.5458 -75.0697 231° Southwest 378 435 32,000  Level New York Center
06:58AM 40.4794 -75.1719 230° Southwest 378 435 32,000  Level New York Center
06:59AM 40.4108 -75.2767 229° Southwest 373 429 32,000  Level New York Center
07:00AM 40.3467 -75.3786 230° Southwest 373 429 32,000  Level New York Center
07:01AM 40.2819 -75.4861 232° Southwest 378 435 32,000  Level New York Center
07:02AM 40.2150 -75.5931 231° Southwest 383 441 32,000  Level New York Center
07:03AM 40.1483 -75.6969 230° Southwest 383 441 32,000  Level New York Center
07:04AM 40.0831 -75.8064 232° Southwest 388 447 32,000  Level New York Center
07:05AM 40.0161 -75.9125 231° Southwest 388 447 32,000  Level New York Center
07:06AM 39.9511 -76.0161 231° Southwest 388 447 32,000  Level New York Center
07:07AM 39.8817 -76.1192 229° Southwest 388 447 32,000  Level New York Center
07:08AM 39.8231 -76.2175 232° Southwest 388 447 32,000  Level New York Center
07:10AM 39.6794 -76.4353 229° Southwest 375 432 32,000  Level Washington Center
07:11AM 39.6078 -76.5478 230° Southwest 375 432 32,000  Level Washington Center
07:12AM 39.5403 -76.6517 230° Southwest 375 432 32,000  Level Washington Center
07:13AM 39.4725 -76.7556 230° Southwest 380 437 32,000  Level Washington Center
07:14AM 39.4069 -76.8594 231° Southwest 375 432 32,000  Level Washington Center
07:15AM 39.3411 -76.9628 231° Southwest 375 432 32,000  Level Washington Center
07:16AM 39.2753 -77.0661 231° Southwest 375 432 32,000  Level Washington Center
07:17AM 39.2053 -77.1692 229° Southwest 381 438 32,000  Level Washington Center
07:18AM 39.1372 -77.2722 230° Southwest 381 438 32,000  Level Washington Center
07:19AM 39.0689 -77.3775 230° Southwest 381 438 32,000  Level Washington Center
07:20AM 39.0028 -77.4775 230° Southwest 376 433 32,000  Level Washington Center
07:21AM 38.9325 -77.5825 229° Southwest 376 433 32,000  Level Washington Center
07:22AM 38.8725 -77.6767 231° Southwest 382 440 32,000  Level Washington Center
07:23AM 38.7975 -77.7839 228° Southwest 388 447 32,000  Level Washington Center
07:24AM 38.7311 -77.8856 230° Southwest 393 452 32,000  Level Washington Center
07:25AM 38.6644 -77.9872 230° Southwest 393 452 32,000  Level Washington Center
07:26AM 38.5956 -78.0886 229° Southwest 386 444 32,000  Level Washington Center
07:27AM 38.5289 -78.1900 230° Southwest 381 438 32,000  Level Washington Center
07:28AM 38.4600 -78.2908 229° Southwest 381 438 32,000  Level Washington Center
07:29AM 38.3908 -78.3944 230° Southwest 381 438 32,000  Level Washington Center
07:30AM 38.3217 -78.5003 230° Southwest 381 438 32,000  Level Washington Center
07:31AM 38.2694 -78.5803 230° Southwest 381 438 32,000  Level Washington Center
07:32AM 38.1872 -78.6986 229° Southwest 381 438 32,000  Level Washington Center
07:33AM 38.1114 -78.8089 229° Southwest 381 438 32,000  Level Washington Center
07:34AM 38.0397 -78.9139 229° Southwest 381 438 32,000  Level Washington Center
07:35AM 37.9681 -79.0133 228° Southwest 381 438 32,000  Level Washington Center
07:36AM 37.8983 -79.1156 229° Southwest 381 438 32,000  Level Washington Center
07:37AM 37.8331 -79.2044 227° Southwest 381 438 32,000 540 Level Washington Center
07:38AM 37.7633 -79.3008 228° Southwest 381 438 33,100 960 Climbing Washington Center
07:39AM 37.6917 -79.3972 227° Southwest 386 444 34,000 420 Climbing Washington Center
07:40AM 37.6131 -79.5061 228° Southwest 381 438 34,000  Level Washington Center
07:41AM 37.5497 -79.5944 228° Southwest 381 438 34,000  Level Washington Center
07:42AM 37.4708 -79.7003 227° Southwest 381 438 34,000  Level Washington Center
07:43AM 37.4050 -79.7933 228° Southwest 399 459 34,000  Level Washington Center
07:44AM 37.3239 -79.9039 227° Southwest 393 452 34,000  Level Washington Center
07:45AM 37.2558 -79.9967 227° Southwest 386 444 34,000  Level Washington Center
07:47AM 37.1533 -80.1328 227° Southwest 395 455 34,000  Level Atlanta Center
07:48AM 37.0814 -80.2300 227° Southwest 395 455 34,000  Level Atlanta Center
07:49AM 37.0153 -80.3189 227° Southwest 395 455 34,000  Level Atlanta Center
07:50AM 36.9392 -80.4214 227° Southwest 395 455 34,000  Level Atlanta Center
07:51AM 36.8669 -80.5181 227° Southwest 390 449 34,000  Level Atlanta Center
07:52AM 36.7906 -80.6197 227° Southwest 395 455 34,000  Level Atlanta Center
07:53AM 36.7122 -80.7242 227° Southwest 390 449 34,000  Level Atlanta Center
07:54AM 36.6378 -80.8256 228° Southwest 390 449 34,000  Level Atlanta Center
07:55AM 36.5611 -80.9269 227° Southwest 397 457 34,000  Level Atlanta Center
07:56AM 36.4844 -81.0281 227° Southwest 402 463 34,000  Level Atlanta Center
07:57AM 36.4156 -81.1183 227° Southwest 402 463 34,000  Level Atlanta Center
07:58AM 36.3408 -81.2164 227° Southwest 408 470 34,000  Level Atlanta Center
07:59AM 36.2639 -81.3169 227° Southwest 408 470 34,000  Level Atlanta Center
08:00AM 36.1847 -81.4172 226° Southwest 408 470 34,000  Level Atlanta Center
08:01AM 36.1094 -81.5175 227° Southwest 403 464 34,000  Level Atlanta Center
08:02AM 36.0344 -81.6147 226° Southwest 403 464 34,000  Level Atlanta Center
08:03AM 35.9550 -81.7172 226° Southwest 410 472 34,000  Level Atlanta Center
08:04AM 35.8797 -81.8167 227° Southwest 402 463 34,000  Level Atlanta Center
08:05AM 35.8019 -81.9136 225° Southwest 407 468 34,000  Level Atlanta Center
08:06AM 35.7225 -82.0181 227° Southwest 412 474 34,000  Level Atlanta Center
08:07AM 35.6367 -82.1250 225° Southwest 412 474 34,000  Level Atlanta Center
08:08AM 35.5589 -82.2261 227° Southwest 407 468 34,000 -60 Level Atlanta Center
08:09AM 35.4789 -82.3197 224° Southwest 401 461 33,900 -540 Descending Atlanta Center
08:10AM 35.3944 -82.4133 222° Southwest 401 461 33,000 -1,260 Descending Atlanta Center
08:11AM 35.3081 -82.5092 222° Southwest 409 471 31,400 -1,440 Descending Atlanta Center
08:12AM 35.2300 -82.5997 223° Southwest 425 489 30,200 -1,080 Descending Atlanta Center
08:13AM 35.1456 -82.6900 221° Southwest 425 489 29,300 -900 Descending Atlanta Center
08:14AM 35.0567 -82.7878 222° Southwest 425 489 28,500 -840 Descending Atlanta Center
08:15AM 34.9700 -82.8856 223° Southwest 425 489 27,700 -780 Descending Atlanta Center
08:16AM 34.8833 -82.9753 220° Southwest 425 489 27,000 -840 Descending Atlanta Center
08:17AM 34.7964 -83.0675 221° Southwest 425 489 26,100 -1,140 Descending Atlanta Center
08:18AM 34.7156 -83.1594 223° Southwest 407 468 24,800 -1,140 Descending Atlanta Center
08:19AM 34.6369 -83.2511 224° Southwest 397 457 23,900 -1,380 Descending Atlanta Center
08:20AM 34.5603 -83.3300 220° Southwest 379 436 22,100 -2,040 Descending Atlanta Center
08:21AM 34.4794 -83.4189 222° Southwest 373 429 19,900 -1,920 Descending Atlanta Center
08:22AM 34.4067 -83.4975 222° Southwest 368 423 18,300 -1,860 Descending Atlanta Center
08:23AM 34.3361 -83.5733 222° Southwest 356 410 16,200 -1,800 Descending Atlanta Center
08:24AM 34.2694 -83.6467 222° Southwest 339 390 14,700 -1,380 Descending Atlanta Center
08:25AM 34.2008 -83.7197 221° Southwest 332 382 13,500 -1,380 Descending Atlanta Center
08:26AM 34.1364 -83.7903 222° Southwest 322 371 12,000 -840 Descending Atlanta Center
08:27AM 34.0739 -83.8583 222° Southwest 316 364 11,900 -900 Descending Atlanta Center
08:28AM 34.0114 -83.9236 221° Southwest 304 350 10,200 -1,500 Descending Atlanta Center
08:28AM 33.9667 -83.9333 190° South 305 351 9,500 -660 Descending Atlanta TRACON
08:30AM 33.8589 -83.9311 179° South 290 334 8,900 -300 Descending Atlanta Center
08:31AM 33.7922 -83.9314 180° South 272 313 8,900 -720 Level Atlanta Center
08:32AM 33.7275 -83.9314 180° South 242 278 7,500 -1,020 Descending Atlanta Center
08:33AM 33.6628 -83.9314 180° South 231 266 6,900 -240 Descending Atlanta Center
08:34AM 33.6333 -84.0333 251° West 190 219 7,000 -360 Climbing Atlanta TRACON
08:35AM 33.6333 -84.1000 270° West 199 229 6,100 -1,020 Descending Atlanta TRACON
08:36AM 33.6333 -84.1500 270° West 194 223 5,000 -1,020 Descending Atlanta TRACON
08:37AM 33.6333 -84.2167 270° West 187 215 4,200 -900 Descending Atlanta TRACON